sensor_id;sensor_type;location;lat;lon;timestamp;P1;durP1;ratioP1;P2;durP2;ratioP2
67721;SDS011;58309;45.292;11.820;2022-09-25T00:00:21;41.42;;;26.92;;
67721;SDS011;58309;45.292;11.820;2022-09-25T00:02:48;46.75;;;28.38;;
67721;SDS011;58309;45.292;11.820;2022-09-25T00:05:13;48.63;;;27.50;;
67721;SDS011;58309;45.292;11.820;2022-09-25T00:07:39;44.38;;;29.00;;
67721;SDS011;58309;45.292;11.820;2022-09-25T00:10:05;50.88;;;28.35;;
67721;SDS011;58309;45.292;11.820;2022-09-25T00:12:30;49.38;;;28.38;;
67721;SDS011;58309;45.292;11.820;2022-09-25T00:14:56;45.03;;;27.42;;
67721;SDS011;58309;45.292;11.820;2022-09-25T00:17:22;45.85;;;29.27;;
67721;SDS011;58309;45.292;11.820;2022-09-25T00:19:47;51.67;;;28.83;;
67721;SDS011;58309;45.292;11.820;2022-09-25T00:22:16;52.03;;;29.00;;
67721;SDS011;58309;45.292;11.820;2022-09-25T00:24:46;48.42;;;27.88;;
67721;SDS011;58309;45.292;11.820;2022-09-25T00:27:12;45.63;;;27.52;;
67721;SDS011;58309;45.292;11.820;2022-09-25T00:29:39;50.45;;;28.50;;
67721;SDS011;58309;45.292;11.820;2022-09-25T00:32:06;45.00;;;27.98;;
67721;SDS011;58309;45.292;11.820;2022-09-25T00:34:33;44.97;;;28.00;;
67721;SDS011;58309;45.292;11.820;2022-09-25T00:36:59;45.10;;;27.40;;
67721;SDS011;58309;45.292;11.820;2022-09-25T00:39:24;46.15;;;27.55;;
67721;SDS011;58309;45.292;11.820;2022-09-25T00:41:50;43.35;;;27.20;;
67721;SDS011;58309;45.292;11.820;2022-09-25T00:47:10;45.67;;;26.42;;
67721;SDS011;58309;45.292;11.820;2022-09-25T00:49:39;45.60;;;28.02;;
67721;SDS011;58309;45.292;11.820;2022-09-25T00:52:06;43.65;;;27.15;;
67721;SDS011;58309;45.292;11.820;2022-09-25T00:57:08;41.47;;;26.23;;
67721;SDS011;58309;45.292;11.820;2022-09-25T00:59:41;45.97;;;26.25;;
67721;SDS011;58309;45.292;11.820;2022-09-25T01:02:11;49.28;;;26.35;;
67721;SDS011;58309;45.292;11.820;2022-09-25T01:04:41;43.90;;;26.05;;
67721;SDS011;58309;45.292;11.820;2022-09-25T01:07:10;43.80;;;26.38;;
67721;SDS011;58309;45.292;11.820;2022-09-25T01:09:36;47.80;;;27.52;;
67721;SDS011;58309;45.292;11.820;2022-09-25T01:12:02;43.13;;;26.38;;
67721;SDS011;58309;45.292;11.820;2022-09-25T01:14:28;46.88;;;27.65;;
67721;SDS011;58309;45.292;11.820;2022-09-25T01:19:30;46.03;;;26.15;;
67721;SDS011;58309;45.292;11.820;2022-09-25T01:22:04;41.33;;;27.40;;
67721;SDS011;58309;45.292;11.820;2022-09-25T01:30:42;46.28;;;28.50;;
67721;SDS011;58309;45.292;11.820;2022-09-25T01:33:16;50.78;;;28.55;;
67721;SDS011;58309;45.292;11.820;2022-09-25T01:35:48;50.72;;;29.65;;
67721;SDS011;58309;45.292;11.820;2022-09-25T01:38:35;53.80;;;30.20;;
67721;SDS011;58309;45.292;11.820;2022-09-25T01:46:08;56.03;;;32.58;;
67721;SDS011;58309;45.292;11.820;2022-09-25T01:48:39;54.88;;;32.95;;
67721;SDS011;58309;45.292;11.820;2022-09-25T01:51:14;53.38;;;32.30;;
67721;SDS011;58309;45.292;11.820;2022-09-25T01:53:52;57.85;;;31.90;;
67721;SDS011;58309;45.292;11.820;2022-09-25T01:56:41;48.33;;;31.33;;
67721;SDS011;58309;45.292;11.820;2022-09-25T02:01:54;50.38;;;30.67;;
67721;SDS011;58309;45.292;11.820;2022-09-25T02:04:24;47.83;;;31.13;;
67721;SDS011;58309;45.292;11.820;2022-09-25T02:06:59;46.83;;;30.30;;
67721;SDS011;58309;45.292;11.820;2022-09-25T02:09:31;45.20;;;29.75;;
67721;SDS011;58309;45.292;11.820;2022-09-25T02:12:13;47.70;;;29.38;;
67721;SDS011;58309;45.292;11.820;2022-09-25T02:17:28;43.90;;;28.38;;
67721;SDS011;58309;45.292;11.820;2022-09-25T02:20:21;45.83;;;29.02;;
67721;SDS011;58309;45.292;11.820;2022-09-25T02:23:20;48.08;;;28.35;;
67721;SDS011;58309;45.292;11.820;2022-09-25T02:26:05;47.72;;;27.73;;
67721;SDS011;58309;45.292;11.820;2022-09-25T02:28:36;48.95;;;29.00;;
67721;SDS011;58309;45.292;11.820;2022-09-25T02:31:02;45.42;;;28.40;;
67721;SDS011;58309;45.292;11.820;2022-09-25T02:33:32;40.65;;;27.83;;
67721;SDS011;58309;45.292;11.820;2022-09-25T02:35:58;44.72;;;27.45;;
67721;SDS011;58309;45.292;11.820;2022-09-25T02:38:27;40.28;;;26.95;;
67721;SDS011;58309;45.292;11.820;2022-09-25T02:40:55;38.78;;;26.15;;
67721;SDS011;58309;45.292;11.820;2022-09-25T02:52:11;37.22;;;25.63;;
67721;SDS011;58309;45.292;11.820;2022-09-25T02:59:54;37.70;;;24.40;;
67721;SDS011;58309;45.292;11.820;2022-09-25T03:02:25;35.95;;;24.33;;
67721;SDS011;58309;45.292;11.820;2022-09-25T03:04:53;37.20;;;26.23;;
67721;SDS011;58309;45.292;11.820;2022-09-25T03:07:20;39.65;;;25.98;;
67721;SDS011;58309;45.292;11.820;2022-09-25T03:09:46;35.47;;;25.35;;
67721;SDS011;58309;45.292;11.820;2022-09-25T03:12:14;37.58;;;24.67;;
67721;SDS011;58309;45.292;11.820;2022-09-25T03:14:39;36.10;;;24.73;;
67721;SDS011;58309;45.292;11.820;2022-09-25T03:17:05;39.17;;;24.08;;
67721;SDS011;58309;45.292;11.820;2022-09-25T03:19:32;34.50;;;23.48;;
67721;SDS011;58309;45.292;11.820;2022-09-25T03:21:59;35.83;;;23.98;;
67721;SDS011;58309;45.292;11.820;2022-09-25T03:24:25;34.45;;;24.42;;
67721;SDS011;58309;45.292;11.820;2022-09-25T03:26:51;38.30;;;24.48;;
67721;SDS011;58309;45.292;11.820;2022-09-25T03:29:18;34.03;;;24.77;;
67721;SDS011;58309;45.292;11.820;2022-09-25T03:31:45;33.60;;;24.27;;
67721;SDS011;58309;45.292;11.820;2022-09-25T03:34:11;32.85;;;22.70;;
67721;SDS011;58309;45.292;11.820;2022-09-25T03:36:37;31.70;;;23.05;;
67721;SDS011;58309;45.292;11.820;2022-09-25T03:39:03;33.00;;;22.80;;
67721;SDS011;58309;45.292;11.820;2022-09-25T03:41:31;31.10;;;22.92;;
67721;SDS011;58309;45.292;11.820;2022-09-25T03:43:58;29.33;;;22.60;;
67721;SDS011;58309;45.292;11.820;2022-09-25T03:46:26;36.15;;;23.00;;
67721;SDS011;58309;45.292;11.820;2022-09-25T03:48:53;37.40;;;23.92;;
67721;SDS011;58309;45.292;11.820;2022-09-25T03:51:20;36.55;;;23.85;;
67721;SDS011;58309;45.292;11.820;2022-09-25T03:53:46;36.83;;;24.20;;
67721;SDS011;58309;45.292;11.820;2022-09-25T03:56:15;35.50;;;23.85;;
67721;SDS011;58309;45.292;11.820;2022-09-25T03:58:44;35.63;;;23.20;;
67721;SDS011;58309;45.292;11.820;2022-09-25T04:01:11;32.92;;;22.90;;
67721;SDS011;58309;45.292;11.820;2022-09-25T04:03:36;31.67;;;22.30;;
67721;SDS011;58309;45.292;11.820;2022-09-25T04:06:03;32.72;;;22.33;;
67721;SDS011;58309;45.292;11.820;2022-09-25T04:08:30;34.70;;;21.48;;
67721;SDS011;58309;45.292;11.820;2022-09-25T04:10:57;33.35;;;21.92;;
67721;SDS011;58309;45.292;11.820;2022-09-25T04:13:24;29.42;;;20.77;;
67721;SDS011;58309;45.292;11.820;2022-09-25T04:15:51;27.67;;;20.60;;
67721;SDS011;58309;45.292;11.820;2022-09-25T04:18:16;32.08;;;20.58;;
67721;SDS011;58309;45.292;11.820;2022-09-25T04:20:42;26.98;;;19.95;;
67721;SDS011;58309;45.292;11.820;2022-09-25T04:23:08;27.48;;;19.98;;
67721;SDS011;58309;45.292;11.820;2022-09-25T04:25:33;26.35;;;19.08;;
67721;SDS011;58309;45.292;11.820;2022-09-25T04:27:59;24.65;;;18.85;;
67721;SDS011;58309;45.292;11.820;2022-09-25T04:30:25;31.08;;;21.73;;
67721;SDS011;58309;45.292;11.820;2022-09-25T04:32:52;28.13;;;20.35;;
67721;SDS011;58309;45.292;11.820;2022-09-25T04:35:36;30.58;;;20.75;;
67721;SDS011;58309;45.292;11.820;2022-09-25T04:38:02;28.00;;;19.25;;
67721;SDS011;58309;45.292;11.820;2022-09-25T04:40:28;25.33;;;18.77;;
67721;SDS011;58309;45.292;11.820;2022-09-25T04:42:58;24.38;;;18.00;;
67721;SDS011;58309;45.292;11.820;2022-09-25T04:45:25;25.70;;;17.33;;
67721;SDS011;58309;45.292;11.820;2022-09-25T04:47:52;25.13;;;17.60;;
67721;SDS011;58309;45.292;11.820;2022-09-25T04:50:18;20.95;;;16.55;;
67721;SDS011;58309;45.292;11.820;2022-09-25T04:52:44;23.05;;;15.73;;
67721;SDS011;58309;45.292;11.820;2022-09-25T04:55:10;20.15;;;15.82;;
67721;SDS011;58309;45.292;11.820;2022-09-25T04:57:36;22.88;;;14.93;;
67721;SDS011;58309;45.292;11.820;2022-09-25T05:00:02;18.35;;;14.32;;
67721;SDS011;58309;45.292;11.820;2022-09-25T05:02:28;19.42;;;14.55;;
67721;SDS011;58309;45.292;11.820;2022-09-25T05:04:54;21.42;;;14.77;;
67721;SDS011;58309;45.292;11.820;2022-09-25T05:07:20;20.35;;;14.93;;
67721;SDS011;58309;45.292;11.820;2022-09-25T05:09:45;18.27;;;14.75;;
67721;SDS011;58309;45.292;11.820;2022-09-25T05:12:11;21.80;;;15.55;;
67721;SDS011;58309;45.292;11.820;2022-09-25T05:14:36;20.55;;;14.70;;
67721;SDS011;58309;45.292;11.820;2022-09-25T05:17:05;18.60;;;14.35;;
67721;SDS011;58309;45.292;11.820;2022-09-25T05:19:32;18.60;;;14.27;;
67721;SDS011;58309;45.292;11.820;2022-09-25T05:21:57;16.77;;;13.32;;
67721;SDS011;58309;45.292;11.820;2022-09-25T05:24:23;18.50;;;13.20;;
67721;SDS011;58309;45.292;11.820;2022-09-25T05:26:48;14.07;;;11.88;;
67721;SDS011;58309;45.292;11.820;2022-09-25T05:29:14;13.57;;;12.18;;
67721;SDS011;58309;45.292;11.820;2022-09-25T05:31:39;15.05;;;11.98;;
67721;SDS011;58309;45.292;11.820;2022-09-25T05:34:07;14.38;;;11.75;;
67721;SDS011;58309;45.292;11.820;2022-09-25T05:36:33;14.98;;;11.52;;
67721;SDS011;58309;45.292;11.820;2022-09-25T05:38:59;16.05;;;11.32;;
67721;SDS011;58309;45.292;11.820;2022-09-25T05:41:25;12.23;;;10.77;;
67721;SDS011;58309;45.292;11.820;2022-09-25T05:43:50;15.52;;;11.50;;
67721;SDS011;58309;45.292;11.820;2022-09-25T05:46:16;13.45;;;10.50;;
67721;SDS011;58309;45.292;11.820;2022-09-25T05:48:41;13.05;;;10.38;;
67721;SDS011;58309;45.292;11.820;2022-09-25T05:51:07;11.63;;;10.18;;
67721;SDS011;58309;45.292;11.820;2022-09-25T05:53:33;12.73;;;9.82;;
67721;SDS011;58309;45.292;11.820;2022-09-25T05:55:59;10.73;;;9.43;;
67721;SDS011;58309;45.292;11.820;2022-09-25T05:58:27;9.18;;;8.23;;
67721;SDS011;58309;45.292;11.820;2022-09-25T06:00:53;10.07;;;8.98;;
67721;SDS011;58309;45.292;11.820;2022-09-25T06:03:19;9.57;;;8.35;;
67721;SDS011;58309;45.292;11.820;2022-09-25T06:05:45;11.35;;;8.32;;
67721;SDS011;58309;45.292;11.820;2022-09-25T06:08:13;8.77;;;7.97;;
67721;SDS011;58309;45.292;11.820;2022-09-25T06:10:39;13.10;;;8.15;;
67721;SDS011;58309;45.292;11.820;2022-09-25T06:13:06;9.10;;;8.20;;
67721;SDS011;58309;45.292;11.820;2022-09-25T06:15:36;8.63;;;7.80;;
67721;SDS011;58309;45.292;11.820;2022-09-25T06:18:03;8.75;;;7.88;;
67721;SDS011;58309;45.292;11.820;2022-09-25T06:20:29;9.65;;;8.13;;
67721;SDS011;58309;45.292;11.820;2022-09-25T06:22:55;8.95;;;7.53;;
67721;SDS011;58309;45.292;11.820;2022-09-25T06:25:22;8.27;;;7.47;;
67721;SDS011;58309;45.292;11.820;2022-09-25T06:27:53;9.77;;;8.05;;
67721;SDS011;58309;45.292;11.820;2022-09-25T06:30:24;7.82;;;6.57;;
67721;SDS011;58309;45.292;11.820;2022-09-25T06:33:05;7.68;;;6.78;;
67721;SDS011;58309;45.292;11.820;2022-09-25T06:35:35;7.32;;;5.80;;
67721;SDS011;58309;45.292;11.820;2022-09-25T06:38:05;6.47;;;5.88;;
67721;SDS011;58309;45.292;11.820;2022-09-25T06:40:30;6.03;;;5.40;;
67721;SDS011;58309;45.292;11.820;2022-09-25T06:42:57;6.00;;;5.32;;
67721;SDS011;58309;45.292;11.820;2022-09-25T06:45:24;5.43;;;4.93;;
67721;SDS011;58309;45.292;11.820;2022-09-25T06:47:52;5.22;;;4.75;;
67721;SDS011;58309;45.292;11.820;2022-09-25T06:50:23;6.00;;;5.45;;
67721;SDS011;58309;45.292;11.820;2022-09-25T06:52:56;5.95;;;5.07;;
67721;SDS011;58309;45.292;11.820;2022-09-25T06:55:25;5.30;;;4.90;;
67721;SDS011;58309;45.292;11.820;2022-09-25T06:57:51;4.03;;;3.72;;
67721;SDS011;58309;45.292;11.820;2022-09-25T07:00:17;4.32;;;4.03;;
67721;SDS011;58309;45.292;11.820;2022-09-25T07:02:42;4.05;;;3.75;;
67721;SDS011;58309;45.292;11.820;2022-09-25T07:05:26;4.15;;;3.85;;
67721;SDS011;58309;45.292;11.820;2022-09-25T07:07:55;3.63;;;3.10;;
67721;SDS011;58309;45.292;11.820;2022-09-25T07:10:21;3.45;;;3.25;;
67721;SDS011;58309;45.292;11.820;2022-09-25T07:12:46;3.75;;;3.45;;
67721;SDS011;58309;45.292;11.820;2022-09-25T07:15:12;4.15;;;3.75;;
67721;SDS011;58309;45.292;11.820;2022-09-25T07:17:42;3.22;;;2.92;;
67721;SDS011;58309;45.292;11.820;2022-09-25T07:20:09;3.60;;;3.40;;
67721;SDS011;58309;45.292;11.820;2022-09-25T07:22:38;3.00;;;2.80;;
67721;SDS011;58309;45.292;11.820;2022-09-25T07:25:05;3.28;;;3.00;;
67721;SDS011;58309;45.292;11.820;2022-09-25T07:27:31;3.33;;;3.13;;
67721;SDS011;58309;45.292;11.820;2022-09-25T07:29:56;3.28;;;2.97;;
67721;SDS011;58309;45.292;11.820;2022-09-25T07:32:22;3.30;;;3.10;;
67721;SDS011;58309;45.292;11.820;2022-09-25T07:34:48;3.30;;;3.00;;
67721;SDS011;58309;45.292;11.820;2022-09-25T07:37:15;3.13;;;2.83;;
67721;SDS011;58309;45.292;11.820;2022-09-25T07:39:44;2.57;;;2.47;;
67721;SDS011;58309;45.292;11.820;2022-09-25T07:42:09;3.00;;;2.80;;
67721;SDS011;58309;45.292;11.820;2022-09-25T07:44:35;3.63;;;2.92;;
67721;SDS011;58309;45.292;11.820;2022-09-25T07:47:00;4.28;;;3.33;;
67721;SDS011;58309;45.292;11.820;2022-09-25T07:49:28;3.50;;;3.20;;
67721;SDS011;58309;45.292;11.820;2022-09-25T07:51:54;2.97;;;2.78;;
67721;SDS011;58309;45.292;11.820;2022-09-25T07:54:19;3.25;;;2.92;;
67721;SDS011;58309;45.292;11.820;2022-09-25T07:56:45;4.03;;;2.90;;
67721;SDS011;58309;45.292;11.820;2022-09-25T07:59:10;2.97;;;2.50;;
67721;SDS011;58309;45.292;11.820;2022-09-25T08:01:36;2.88;;;2.67;;
67721;SDS011;58309;45.292;11.820;2022-09-25T08:04:01;3.10;;;2.90;;
67721;SDS011;58309;45.292;11.820;2022-09-25T08:06:27;3.05;;;2.80;;
67721;SDS011;58309;45.292;11.820;2022-09-25T08:08:52;4.70;;;2.83;;
67721;SDS011;58309;45.292;11.820;2022-09-25T08:11:18;2.70;;;2.50;;
67721;SDS011;58309;45.292;11.820;2022-09-25T08:13:44;2.75;;;2.55;;
67721;SDS011;58309;45.292;11.820;2022-09-25T08:16:13;3.25;;;2.58;;
67721;SDS011;58309;45.292;11.820;2022-09-25T08:18:41;2.60;;;2.40;;
67721;SDS011;58309;45.292;11.820;2022-09-25T08:21:09;3.15;;;2.40;;
67721;SDS011;58309;45.292;11.820;2022-09-25T08:23:38;2.38;;;2.20;;
67721;SDS011;58309;45.292;11.820;2022-09-25T08:26:04;1.92;;;1.83;;
67721;SDS011;58309;45.292;11.820;2022-09-25T08:28:30;2.10;;;1.95;;
67721;SDS011;58309;45.292;11.820;2022-09-25T08:30:56;2.00;;;1.90;;
67721;SDS011;58309;45.292;11.820;2022-09-25T08:33:23;2.20;;;2.00;;
67721;SDS011;58309;45.292;11.820;2022-09-25T08:35:56;2.13;;;1.92;;
67721;SDS011;58309;45.292;11.820;2022-09-25T08:38:23;2.05;;;1.90;;
67721;SDS011;58309;45.292;11.820;2022-09-25T08:40:53;2.60;;;2.40;;
67721;SDS011;58309;45.292;11.820;2022-09-25T08:43:22;2.25;;;2.15;;
67721;SDS011;58309;45.292;11.820;2022-09-25T08:45:50;2.10;;;1.90;;
67721;SDS011;58309;45.292;11.820;2022-09-25T08:48:39;1.95;;;1.85;;
67721;SDS011;58309;45.292;11.820;2022-09-25T08:51:29;2.03;;;1.92;;
67721;SDS011;58309;45.292;11.820;2022-09-25T08:53:58;2.05;;;1.92;;
67721;SDS011;58309;45.292;11.820;2022-09-25T08:56:25;1.95;;;1.80;;
67721;SDS011;58309;45.292;11.820;2022-09-25T08:58:54;1.33;;;1.33;;
67721;SDS011;58309;45.292;11.820;2022-09-25T09:01:27;1.55;;;1.45;;
67721;SDS011;58309;45.292;11.820;2022-09-25T09:04:06;1.60;;;1.50;;
67721;SDS011;58309;45.292;11.820;2022-09-25T09:06:43;2.38;;;1.60;;
67721;SDS011;58309;45.292;11.820;2022-09-25T09:09:12;1.88;;;1.77;;
67721;SDS011;58309;45.292;11.820;2022-09-25T09:11:43;1.67;;;1.55;;
67721;SDS011;58309;45.292;11.820;2022-09-25T09:14:13;1.20;;;1.20;;
67721;SDS011;58309;45.292;11.820;2022-09-25T09:16:45;1.40;;;1.30;;
67721;SDS011;58309;45.292;11.820;2022-09-25T09:19:14;1.25;;;1.25;;
67721;SDS011;58309;45.292;11.820;2022-09-25T09:21:52;1.20;;;1.20;;
67721;SDS011;58309;45.292;11.820;2022-09-25T09:25:04;1.02;;;1.02;;
67721;SDS011;58309;45.292;11.820;2022-09-25T09:36:11;1.38;;;1.20;;
67721;SDS011;58309;45.292;11.820;2022-09-25T09:39:07;1.23;;;1.13;;
67721;SDS011;58309;45.292;11.820;2022-09-25T09:41:39;1.40;;;1.30;;
67721;SDS011;58309;45.292;11.820;2022-09-25T09:49:36;1.40;;;1.40;;
67721;SDS011;58309;45.292;11.820;2022-09-25T09:57:23;1.30;;;1.30;;
67721;SDS011;58309;45.292;11.820;2022-09-25T09:59:55;1.35;;;1.33;;
67721;SDS011;58309;45.292;11.820;2022-09-25T10:04:55;1.85;;;1.40;;
67721;SDS011;58309;45.292;11.820;2022-09-25T10:07:26;1.90;;;1.80;;
67721;SDS011;58309;45.292;11.820;2022-09-25T10:09:54;14.98;;;12.80;;
67721;SDS011;58309;45.292;11.820;2022-09-25T10:12:33;3.35;;;2.40;;
67721;SDS011;58309;45.292;11.820;2022-09-25T10:15:03;2.50;;;1.90;;
67721;SDS011;58309;45.292;11.820;2022-09-25T10:17:31;1.73;;;1.60;;
67721;SDS011;58309;45.292;11.820;2022-09-25T10:20:16;1.73;;;1.50;;
67721;SDS011;58309;45.292;11.820;2022-09-25T10:22:45;2.90;;;2.53;;
67721;SDS011;58309;45.292;11.820;2022-09-25T10:25:11;1.85;;;1.73;;
67721;SDS011;58309;45.292;11.820;2022-09-25T10:27:38;5.38;;;4.28;;
67721;SDS011;58309;45.292;11.820;2022-09-25T10:30:16;2.83;;;2.63;;
67721;SDS011;58309;45.292;11.820;2022-09-25T10:32:45;2.97;;;2.55;;
67721;SDS011;58309;45.292;11.820;2022-09-25T10:35:20;2.47;;;2.28;;
67721;SDS011;58309;45.292;11.820;2022-09-25T10:37:50;3.40;;;3.13;;
67721;SDS011;58309;45.292;11.820;2022-09-25T10:43:16;4.03;;;3.65;;
67721;SDS011;58309;45.292;11.820;2022-09-25T10:45:44;2.10;;;2.00;;
67721;SDS011;58309;45.292;11.820;2022-09-25T10:51:22;2.10;;;2.00;;
67721;SDS011;58309;45.292;11.820;2022-09-25T10:53:49;2.35;;;2.20;;
67721;SDS011;58309;45.292;11.820;2022-09-25T10:58:54;7.20;;;4.68;;
67721;SDS011;58309;45.292;11.820;2022-09-25T11:01:29;3.35;;;2.50;;
67721;SDS011;58309;45.292;11.820;2022-09-25T11:03:59;2.88;;;2.67;;
67721;SDS011;58309;45.292;11.820;2022-09-25T11:06:28;3.75;;;3.47;;
67721;SDS011;58309;45.292;11.820;2022-09-25T11:11:40;2.40;;;2.30;;
67721;SDS011;58309;45.292;11.820;2022-09-25T11:14:16;5.28;;;4.38;;
67721;SDS011;58309;45.292;11.820;2022-09-25T11:16:50;2.05;;;1.95;;
67721;SDS011;58309;45.292;11.820;2022-09-25T11:21:52;2.20;;;2.10;;
67721;SDS011;58309;45.292;11.820;2022-09-25T11:27:08;1.77;;;1.65;;
67721;SDS011;58309;45.292;11.820;2022-09-25T11:30:00;1.70;;;1.60;;
67721;SDS011;58309;45.292;11.820;2022-09-25T11:43:58;1.45;;;1.40;;
67721;SDS011;58309;45.292;11.820;2022-09-25T11:49:27;1.48;;;1.40;;
67721;SDS011;58309;45.292;11.820;2022-09-25T12:06:48;1.40;;;1.40;;
67721;SDS011;58309;45.292;11.820;2022-09-25T12:20:16;1.38;;;1.38;;
67721;SDS011;58309;45.292;11.820;2022-09-25T12:22:56;1.60;;;1.50;;
67721;SDS011;58309;45.292;11.820;2022-09-25T12:36:19;1.25;;;1.25;;
67721;SDS011;58309;45.292;11.820;2022-09-25T12:38:56;1.63;;;1.52;;
67721;SDS011;58309;45.292;11.820;2022-09-25T12:41:34;1.90;;;1.38;;
67721;SDS011;58309;45.292;11.820;2022-09-25T12:44:20;1.45;;;1.30;;
67721;SDS011;58309;45.292;11.820;2022-09-25T12:46:59;1.20;;;1.20;;
67721;SDS011;58309;45.292;11.820;2022-09-25T12:49:31;1.30;;;1.30;;
67721;SDS011;58309;45.292;11.820;2022-09-25T12:52:26;1.35;;;1.35;;
67721;SDS011;58309;45.292;11.820;2022-09-25T12:55:03;1.50;;;1.42;;
67721;SDS011;58309;45.292;11.820;2022-09-25T13:00:56;1.85;;;1.50;;
67721;SDS011;58309;45.292;11.820;2022-09-25T13:09:11;1.25;;;1.23;;
67721;SDS011;58309;45.292;11.820;2022-09-25T13:14:26;1.40;;;1.40;;
67721;SDS011;58309;45.292;11.820;2022-09-25T13:16:55;1.50;;;1.40;;
67721;SDS011;58309;45.292;11.820;2022-09-25T13:19:28;1.45;;;1.35;;
67721;SDS011;58309;45.292;11.820;2022-09-25T13:22:04;1.60;;;1.50;;
67721;SDS011;58309;45.292;11.820;2022-09-25T13:24:42;2.35;;;1.52;;
67721;SDS011;58309;45.292;11.820;2022-09-25T13:27:14;3.10;;;1.80;;
67721;SDS011;58309;45.292;11.820;2022-09-25T13:29:43;1.77;;;1.67;;
67721;SDS011;58309;45.292;11.820;2022-09-25T13:32:23;1.90;;;1.80;;
67721;SDS011;58309;45.292;11.820;2022-09-25T13:34:57;2.05;;;1.92;;
67721;SDS011;58309;45.292;11.820;2022-09-25T13:37:32;2.35;;;1.90;;
67721;SDS011;58309;45.292;11.820;2022-09-25T13:40:01;2.03;;;1.92;;
67721;SDS011;58309;45.292;11.820;2022-09-25T13:43:16;2.33;;;1.83;;
67721;SDS011;58309;45.292;11.820;2022-09-25T13:48:50;2.08;;;1.98;;
67721;SDS011;58309;45.292;11.820;2022-09-25T13:56:27;2.50;;;2.28;;
67721;SDS011;58309;45.292;11.820;2022-09-25T14:01:43;2.17;;;2.07;;
67721;SDS011;58309;45.292;11.820;2022-09-25T14:04:10;1.90;;;1.80;;
67721;SDS011;58309;45.292;11.820;2022-09-25T14:06:44;2.08;;;1.98;;
67721;SDS011;58309;45.292;11.820;2022-09-25T14:09:13;2.30;;;2.10;;
67721;SDS011;58309;45.292;11.820;2022-09-25T14:11:42;2.22;;;2.13;;
67721;SDS011;58309;45.292;11.820;2022-09-25T14:14:24;2.70;;;2.50;;
67721;SDS011;58309;45.292;11.820;2022-09-25T14:16:53;2.80;;;2.60;;
67721;SDS011;58309;45.292;11.820;2022-09-25T14:19:24;3.05;;;2.85;;
67721;SDS011;58309;45.292;11.820;2022-09-25T14:21:53;4.70;;;3.25;;
67721;SDS011;58309;45.292;11.820;2022-09-25T14:24:20;3.55;;;3.35;;
67721;SDS011;58309;45.292;11.820;2022-09-25T14:26:49;3.65;;;3.40;;
67721;SDS011;58309;45.292;11.820;2022-09-25T14:29:23;4.97;;;3.88;;
67721;SDS011;58309;45.292;11.820;2022-09-25T14:43:43;4.88;;;4.57;;
67721;SDS011;58309;45.292;11.820;2022-09-25T14:46:24;4.70;;;4.30;;
67721;SDS011;58309;45.292;11.820;2022-09-25T14:51:22;5.07;;;4.53;;
67721;SDS011;58309;45.292;11.820;2022-09-25T14:53:53;6.47;;;5.57;;
67721;SDS011;58309;45.292;11.820;2022-09-25T14:56:25;7.32;;;6.60;;
67721;SDS011;58309;45.292;11.820;2022-09-25T14:58:54;7.40;;;6.70;;
67721;SDS011;58309;45.292;11.820;2022-09-25T15:04:06;8.15;;;7.35;;
67721;SDS011;58309;45.292;11.820;2022-09-25T15:06:35;7.15;;;6.57;;
67721;SDS011;58309;45.292;11.820;2022-09-25T15:11:53;8.50;;;7.80;;
67721;SDS011;58309;45.292;11.820;2022-09-25T15:14:19;8.88;;;7.97;;
67721;SDS011;58309;45.292;11.820;2022-09-25T15:16:45;7.95;;;7.13;;
67721;SDS011;58309;45.292;11.820;2022-09-25T15:19:31;9.55;;;8.65;;
67721;SDS011;58309;45.292;11.820;2022-09-25T15:22:06;7.50;;;6.75;;
67721;SDS011;58309;45.292;11.820;2022-09-25T15:24:34;7.90;;;7.10;;
67721;SDS011;58309;45.292;11.820;2022-09-25T15:27:00;21.35;;;14.75;;
67721;SDS011;58309;45.292;11.820;2022-09-25T15:29:41;9.65;;;8.73;;
67721;SDS011;58309;45.292;11.820;2022-09-25T15:32:17;7.95;;;7.25;;
67721;SDS011;58309;45.292;11.820;2022-09-25T15:37:39;7.78;;;7.07;;
67721;SDS011;58309;45.292;11.820;2022-09-25T15:40:24;8.50;;;7.75;;
67721;SDS011;58309;45.292;11.820;2022-09-25T15:42:52;10.07;;;9.18;;
67721;SDS011;58309;45.292;11.820;2022-09-25T15:47:56;10.07;;;8.98;;
67721;SDS011;58309;45.292;11.820;2022-09-25T15:50:26;12.10;;;10.15;;
67721;SDS011;58309;45.292;11.820;2022-09-25T15:52:53;12.27;;;11.07;;
67721;SDS011;58309;45.292;11.820;2022-09-25T15:55:21;12.10;;;10.87;;
67721;SDS011;58309;45.292;11.820;2022-09-25T15:57:48;11.93;;;10.60;;
67721;SDS011;58309;45.292;11.820;2022-09-25T16:03:02;11.50;;;10.40;;
67721;SDS011;58309;45.292;11.820;2022-09-25T16:05:49;12.25;;;11.00;;
67721;SDS011;58309;45.292;11.820;2022-09-25T16:08:29;11.43;;;10.32;;
67721;SDS011;58309;45.292;11.820;2022-09-25T16:13:28;12.15;;;10.95;;
67721;SDS011;58309;45.292;11.820;2022-09-25T16:15:54;11.93;;;10.68;;
67721;SDS011;58309;45.292;11.820;2022-09-25T16:18:34;12.18;;;10.98;;
67721;SDS011;58309;45.292;11.820;2022-09-25T16:23:49;12.82;;;11.48;;
67721;SDS011;58309;45.292;11.820;2022-09-25T16:26:17;12.90;;;11.43;;
67721;SDS011;58309;45.292;11.820;2022-09-25T16:28:58;12.77;;;11.52;;
67721;SDS011;58309;45.292;11.820;2022-09-25T16:31:30;13.73;;;11.73;;
67721;SDS011;58309;45.292;11.820;2022-09-25T16:33:59;12.98;;;11.77;;
67721;SDS011;58309;45.292;11.820;2022-09-25T16:36:25;12.25;;;11.05;;
67721;SDS011;58309;45.292;11.820;2022-09-25T16:41:37;12.52;;;11.23;;
67721;SDS011;58309;45.292;11.820;2022-09-25T16:44:13;15.85;;;13.20;;
67721;SDS011;58309;45.292;11.820;2022-09-25T16:49:16;14.98;;;11.60;;
67721;SDS011;58309;45.292;11.820;2022-09-25T16:51:46;15.02;;;13.50;;
67721;SDS011;58309;45.292;11.820;2022-09-25T16:54:13;15.95;;;14.35;;
67721;SDS011;58309;45.292;11.820;2022-09-25T16:56:40;15.38;;;13.88;;
67721;SDS011;58309;45.292;11.820;2022-09-25T16:59:14;13.50;;;11.80;;
67721;SDS011;58309;45.292;11.820;2022-09-25T17:01:45;13.52;;;12.20;;
67721;SDS011;58309;45.292;11.820;2022-09-25T17:04:14;13.70;;;12.30;;
67721;SDS011;58309;45.292;11.820;2022-09-25T17:06:40;14.60;;;12.63;;
67721;SDS011;58309;45.292;11.820;2022-09-25T17:09:14;14.70;;;13.18;;
67721;SDS011;58309;45.292;11.820;2022-09-25T17:16:50;14.43;;;12.95;;
67721;SDS011;58309;45.292;11.820;2022-09-25T17:19:18;14.90;;;13.30;;
67721;SDS011;58309;45.292;11.820;2022-09-25T17:21:45;15.85;;;14.25;;
67721;SDS011;58309;45.292;11.820;2022-09-25T17:24:14;16.02;;;14.35;;
67721;SDS011;58309;45.292;11.820;2022-09-25T17:26:42;18.77;;;14.63;;
67721;SDS011;58309;45.292;11.820;2022-09-25T17:29:09;15.25;;;13.82;;
67721;SDS011;58309;45.292;11.820;2022-09-25T17:31:35;16.15;;;14.50;;
67721;SDS011;58309;45.292;11.820;2022-09-25T17:34:01;18.98;;;16.85;;
67721;SDS011;58309;45.292;11.820;2022-09-25T17:36:31;20.95;;;16.50;;
67721;SDS011;58309;45.292;11.820;2022-09-25T17:38:57;19.20;;;16.17;;
67721;SDS011;58309;45.292;11.820;2022-09-25T17:41:30;16.70;;;15.00;;
67721;SDS011;58309;45.292;11.820;2022-09-25T17:43:57;19.17;;;15.60;;
67721;SDS011;58309;45.292;11.820;2022-09-25T17:46:23;20.77;;;17.05;;
67721;SDS011;58309;45.292;11.820;2022-09-25T17:48:50;19.30;;;17.33;;
67721;SDS011;58309;45.292;11.820;2022-09-25T17:51:17;19.17;;;17.17;;